Latest Coastal Weather Observations for Moruya Airport

IDN60701

Issued at 11:22 am EDT Thursday 29 January 2015 (issued every 10 minutes, with the page automatically refreshed every 10 minutes)

About coastal observations | Map of coastal stations | Coastal observations for NSW | Marine services | Other Formats
Station Details ID: 069148 Name: MORUYA AIRPORT AWS Lat: -35.90 Lon: 150.14 Height: 4.0 m
Data from the previous 72 hours. | See also: Recent months for locations in New South Wales
Date/Time
EDT
Temp

°C
Wind Pressure Rain
since 9am
mm
Weather Cloud Vis
km
Sea
Height
m
Swell
Dir
 
Speed
knots
Gust
knots
hPa Trend Height
m
Period
s
Dir
29/11:00am 20.1 SSW 15 22 1014.0 - 0.0 - Partly cloudy 10 - - - -
29/10:30am 20.0 SW 15 22 1014.2 - 0.0 - - 10 - - - -
29/10:00am 19.3 SW 13 22 1014.3 - 0.0 - - 10 - - - -
29/09:30am 18.4 SW 15 21 1014.3 - 0.0 - - 10 - - - -
29/09:00am 17.9 SW 13 20 1014.3 - 5.4 - - 10 - - - -
29/08:30am 16.8 SSW 13 19 1014.4 - 5.4 - - 10 - - - -
29/08:00am 16.3 SW 12 18 1014.3 - 5.4 - - 7 - - - -
29/07:30am 15.6 SSW 13 18 1013.7 - 5.4 - - 10 - - - -
29/07:00am 14.6 SW 11 15 1013.8 - 5.4 - - 10 - - - -
29/06:30am 12.8 WSW 7 10 1013.8 - 5.4 - - 10 - - - -
29/06:00am 12.7 W 6 11 1013.7 - 5.4 - - 10 - - - -
29/05:30am 13.5 WSW 7 9 1013.7 - 5.4 - - 10 - - - -
29/05:00am 13.5 WSW 7 11 1013.7 - 5.4 - - 7 - - - -
29/04:30am 13.5 WSW 6 7 1013.7 - 5.4 - - 9 - - - -
29/04:00am 14.0 WSW 8 11 1013.8 - 5.4 - - 8 - - - -
29/03:30am 14.6 WSW 9 15 1013.9 - 5.4 - - 10 - - - -
29/03:00am 14.6 WSW 9 12 1014.2 - 5.4 - Mostly clear 8 - - - -
29/02:30am 15.0 SW 10 15 1014.5 - 5.4 - Partly cloudy 7 - - - -
29/02:00am 14.7 WSW 7 10 1014.6 - 5.4 - Partly cloudy 9 - - - -
29/01:30am 14.4 SW 8 11 1015.1 - 5.4 - Partly cloudy 8 - - - -
29/01:29am 14.4 SW 8 11 1015.1 - 5.4 - Partly cloudy 9 - - - -
29/01:13am 14.6 SW 7 10 1015.4 - 5.4 - Partly cloudy 5 - - - -
29/01:00am 14.5 SSW 7 10 1015.7 - 5.4 - Partly cloudy 7 - - - -
29/12:30am 14.3 SW 8 12 1015.8 - 5.4 - - 10 - - - -
 
Date/Time
EDT
Temp

°C
Wind Pressure Rain
since 9am
mm
Weather Cloud Vis
km
Sea
Height
m
Swell
Dir
 
Speed
knots
Gust
knots
hPa Trend Height
m
Period
s
Dir
28/11:30pm 14.5 WSW 7 9 1015.9 - 5.4 - Partly cloudy 10 - - - -
28/11:00pm 14.6 SW 9 13 1016.2 - 5.4 - Partly cloudy 8 - - - -
28/10:30pm 14.9 SW 9 13 1016.5 - 5.4 - Partly cloudy 10 - - - -
28/10:00pm 15.1 SW 11 14 1016.7 - 5.4 - - 9 - - - -
28/09:30pm 15.2 SW 10 14 1016.6 - 5.4 - Partly cloudy 9 - - - -
28/09:00pm 15.3 WSW 8 12 1016.3 - 5.4 Recent precip. Partly cloudy 10 - - - -
28/08:30pm 15.9 SW 5 8 1016.4 - 5.4 - Partly cloudy 10 - - - -
28/08:08pm 16.1 SSW 7 8 1016.1 - 5.4 - Partly cloudy 8 - - - -
28/08:00pm 16.1 SSW 7 11 1016.1 - 5.2 - Partly cloudy 7 - - - -
28/07:50pm 16.3 SSW 7 9 1016.0 - 4.6 - Partly cloudy 5 - - - -
28/07:30pm 16.3 SW 8 11 1015.9 - 3.4 - Partly cloudy 10 - - - -
28/07:00pm 17.8 WSW 7 11 1015.5 - 1.8 - Partly cloudy 10 - - - -
28/06:30pm 18.6 SW 5 7 1015.4 - 1.8 - Partly cloudy 10 - - - -
28/06:00pm 18.4 WSW 5 7 1015.3 - 1.8 - Cloudy 10 - - - -
28/05:30pm 19.4 WSW 6 9 1015.2 - 1.8 - Partly cloudy 10 - - - -
28/05:00pm 19.3 S 9 13 1015.4 - 1.8 - Cloudy 10 - - - -
28/04:30pm 19.2 S 11 15 1015.6 - 1.8 - Cloudy 10 - - - -
28/04:00pm 19.3 S 8 11 1015.7 - 1.8 - Partly cloudy 10 - - - -
28/03:30pm 18.4 SSE 8 11 1015.8 - 1.8 - Partly cloudy 10 - - - -
28/03:13pm 17.6 SSE 13 19 1016.0 - 1.8 - Partly cloudy 10 - - - -
28/03:00pm 17.9 SSE 14 23 1016.0 - 1.8 Rain Mostly cloudy 5 - - - -
28/02:56pm 18.0 SE 13 23 1015.9 - 1.6 - Partly cloudy 5 - - - -
28/02:30pm 21.8 SE 10 15 1015.7 - 0.0 - Partly cloudy 10 - - - -
28/02:00pm 21.0 SE 11 16 1015.8 - 0.0 - Partly cloudy 10 - - - -
28/01:30pm 20.8 SSE 12 17 1016.1 - 0.0 - Partly cloudy 10 - - - -
28/01:00pm 20.6 SE 12 16 1016.0 - 0.0 - Partly cloudy 10 - - - -
28/12:30pm 20.4 SSE 13 17 1016.0 - 0.0 - Partly cloudy 10 - - - -
28/12:00pm 20.4 SSE 13 20 1016.2 - 0.0 - Mostly cloudy 10 - - - -
28/11:30am 20.7 SE 11 14 1016.1 - 0.0 - - 10 - - - -
28/11:00am 20.6 SE 12 18 1016.2 - 0.0 - - 10 - - - -
28/10:30am 20.2 SE 12 16 1016.2 - 0.0 - Partly cloudy 10 - - - -
28/10:00am 19.8 SSE 9 17 1016.1 - 0.0 - Partly cloudy 10 - - - -
28/09:30am 20.2 S 9 16 1016.0 - 0.0 - Partly cloudy 10 - - - -
28/09:00am 19.4 SW 7 10 1015.9 - 0.4 - Mostly clear 10 - - - -
28/08:30am 17.9 SSW 5 8 1015.7 - 0.4 - Partly cloudy 10 - - - -
28/08:00am 17.7 SSW 9 14 1015.5 - 0.4 - Partly cloudy 10 - - - -
28/07:30am 17.1 SW 9 11 1015.1 - 0.4 - Partly cloudy 10 - - - -
28/07:00am 16.6 SW 10 13 1014.7 - 0.4 - Partly cloudy 10 - - - -
28/06:30am 16.4 SW 9 12 1014.4 - 0.4 - - 10 - - - -
28/06:00am 16.3 SW 9 11 1014.2 - 0.4 - - 10 - - - -
28/05:30am 16.6 SW 8 11 1014.2 - 0.4 - Partly cloudy 10 - - - -
28/05:00am 16.7 SW 7 10 1014.2 - 0.4 - Partly cloudy 10 - - - -
28/04:30am 16.8 SW 8 12 1014.2 - 0.4 - Partly cloudy 10 - - - -
28/04:00am 16.7 WSW 7 11 1014.3 - 0.4 - Partly cloudy 10 - - - -
28/03:30am 16.8 WSW 7 13 1014.3 - 0.4 - Cloudy 10 - - - -
28/03:00am 16.9 SW 9 12 1014.4 - 0.4 - Cloudy 10 - - - -
28/02:30am 16.8 SW 9 12 1014.6 - 0.4 - Cloudy 10 - - - -
28/02:00am 16.6 SW 10 12 1014.9 - 0.4 - Cloudy 10 - - - -
28/01:30am 16.7 SW 7 10 1015.2 - 0.4 - Cloudy 10 - - - -
28/01:00am 16.8 SW 7 9 1015.3 - 0.4 - Cloudy 10 - - - -
28/12:30am 16.9 SW 4 6 1015.6 - 0.4 - Cloudy 10 - - - -
28/12:00am 17.3 SW 6 8 1015.7 - 0.4 - Cloudy 10 - - - -
 
Date/Time
EDT
Temp

°C
Wind Pressure Rain
since 9am
mm
Weather Cloud Vis
km
Sea
Height
m
Swell
Dir
 
Speed
knots
Gust
knots
hPa Trend Height
m
Period
s
Dir
27/11:53pm 17.2 SW 6 8 1015.8 - 0.4 - Partly cloudy 10 - - - -
27/11:38pm 17.1 SSW 6 9 1015.9 - 0.4 - Partly cloudy 5 - - - -
27/11:30pm 17.1 SSW 6 9 1015.9 - 0.4 - Partly cloudy 6 - - - -
27/11:00pm 17.3 SSW 8 11 1015.9 - 0.4 - Partly cloudy 8 - - - -
27/10:30pm 17.6 SSW 7 11 1015.8 - 0.4 - Partly cloudy 10 - - - -
27/10:00pm 18.0 SSW 10 15 1015.7 - 0.4 - Partly cloudy 10 - - - -
27/09:30pm 18.1 SSW 7 10 1015.6 - 0.4 - Partly cloudy 10 - - - -
27/09:00pm 18.3 S 9 12 1015.4 - 0.4 - Cloudy 8 - - - -
27/08:30pm 18.8 S 10 13 1015.1 - 0.4 - Partly cloudy 8 - - - -
27/08:00pm 19.0 S 7 10 1015.0 - 0.4 - Partly cloudy 10 - - - -
27/07:30pm 19.2 SSE 7 11 1014.6 - 0.4 - Cloudy 10 - - - -
27/07:00pm 19.1 S 6 8 1014.4 - 0.4 - Cloudy 9 - - - -
27/06:30pm 19.1 S 5 8 1014.3 - 0.4 - Partly cloudy 9 - - - -
27/06:00pm 19.2 SSE 8 10 1014.1 - 0.4 - Cloudy 9 - - - -
27/05:30pm 19.1 S 8 11 1014.1 - 0.4 - Cloudy 10 - - - -
27/05:00pm 19.3 SSE 9 12 1014.2 - 0.4 - Partly cloudy 7 - - - -
27/04:30pm 19.0 SSW 6 7 1014.4 - 0.4 - Partly cloudy 10 - - - -
27/04:00pm 18.8 S 5 6 1014.7 - 0.4 - Partly cloudy 10 - - - -
27/03:30pm 18.8 SSW 5 8 1015.0 - 0.4 - Partly cloudy 10 - - - -
27/03:00pm 19.1 S 7 9 1015.0 - 0.4 - Mostly cloudy 10 - - - -
27/02:30pm 18.9 S 7 9 1015.1 - 0.4 - Cloudy 10 - - - -
27/02:00pm 18.7 SSE 7 9 1015.3 - 0.4 - Partly cloudy 10 - - - -
27/01:30pm 18.8 SSE 7 10 1015.4 - 0.4 - Partly cloudy 10 - - - -
27/01:00pm 19.5 S 6 10 1015.4 - 0.4 - Partly cloudy 10 - - - -
27/12:30pm 18.8 SW 8 11 1015.6 - 0.4 - Partly cloudy 10 - - - -
27/12:00pm 17.1 SW 5 8 1016.1 - 0.4 Recent precip. Mostly cloudy 10 - - - -
27/11:30am 16.6 WSW 5 8 1016.3 - 0.4 - Cloudy 10 - - - -
27/11:00am 15.7 W 7 10 1016.3 - 0.2 - Partly cloudy 10 - - - -
27/10:30am 15.7 W 6 9 1016.2 - 0.2 - Partly cloudy 10 - - - -
27/10:00am 15.3 SW 6 8 1016.1 - 0.0 - Cloudy 10 - - - -
27/09:30am 15.4 SW 9 12 1016.2 - 0.0 - Partly cloudy 7 - - - -
27/09:00am 16.0 SW 7 11 1016.0 - 2.8 - Mostly cloudy 10 - - - -
27/08:30am 15.3 WSW 5 8 1016.1 - 2.8 - Cloudy 10 - - - -
27/08:00am 15.1 WSW 6 9 1015.7 - 2.8 - Partly cloudy 9 - - - -
27/07:53am 15.1 SW 6 9 1015.6 - 2.8 - Partly cloudy 9 - - - -
27/07:41am 15.1 SW 7 10 1015.6 - 2.8 - Partly cloudy 5 - - - -
27/07:30am 14.9 WSW 5 9 1015.6 - 2.8 - Partly cloudy 10 - - - -
27/07:00am 14.8 WSW 4 5 1015.3 - 2.8 - Partly cloudy 9 - - - -
27/06:30am 14.7 WSW 5 7 1015.1 - 2.8 - Partly cloudy 10 - - - -
27/06:00am 14.6 WSW 6 9 1015.1 - 2.8 - Mostly cloudy 10 - - - -
27/05:30am 14.6 W 5 7 1015.1 - 2.8 - Partly cloudy 10 - - - -
27/05:00am 14.7 WSW 6 9 1015.1 - 2.8 - Partly cloudy 7 - - - -
27/04:30am 14.7 WSW 5 7 1015.1 - 2.8 - Partly cloudy 10 - - - -
27/04:00am 14.7 WSW 4 6 1015.3 - 2.8 - Partly cloudy 10 - - - -
27/03:30am 14.8 WSW 4 6 1015.4 - 2.8 - Partly cloudy 10 - - - -
27/03:00am 14.9 SW 3 7 1015.6 - 2.8 Rain Cloudy 10 - - - -
27/02:30am 14.9 WSW 6 8 1015.6 - 2.6 - Partly cloudy 10 - - - -
27/02:00am 14.9 WSW 5 7 1016.0 - 2.6 - Partly cloudy 9 - - - -
27/01:30am 15.0 WSW 5 7 1016.4 - 2.6 - Partly cloudy 8 - - - -
27/01:00am 15.0 WSW 5 8 1016.5 - 2.6 - Partly cloudy 10 - - - -
27/12:30am 15.2 WSW 6 9 1016.7 - 2.4 - Partly cloudy 10 - - - -
27/12:14am 15.3 SW 5 7 1016.8 - 2.4 - Partly cloudy 7 - - - -
27/12:00am 15.3 W 4 6 1017.0 - 2.4 Rain Cloudy 5 - - - -
 
Date/Time
EDT
Temp

°C
Wind Pressure Rain
since 9am
mm
Weather Cloud Vis
km
Sea
Height
m
Swell
Dir
 
Speed
knots
Gust
knots
hPa Trend Height
m
Period
s
Dir
26/11:59pm 15.3 W 4 5 1017.0 - 2.2 - Partly cloudy 5 - - - -
26/11:30pm 15.4 WSW 5 7 1017.2 - 2.2 - Partly cloudy 10 - - - -
26/11:17pm 15.4 SW 6 9 1017.3 - 2.2 - Partly cloudy 10 - - - -
26/11:03pm 15.6 SW 5 7 1017.4 - 2.2 - Partly cloudy 5 - - - -
26/11:02pm 15.6 WSW 5 7 1017.4 - 2.2 - Partly cloudy 6 - - - -
26/11:00pm 15.6 WSW 5 7 1017.4 - 2.2 - Partly cloudy 6 - - - -
26/10:55pm 15.7 WSW 4 6 1017.4 - 2.2 - Partly cloudy 6 - - - -
26/10:31pm 15.9 SW 3 6 1017.6 - 1.6 - Partly cloudy 4 - - - -
26/10:30pm 15.9 SW 3 6 1017.6 - 1.6 - Partly cloudy 4 - - - -
26/10:15pm 16.1 W 3 7 1017.4 - 0.0 - Partly cloudy 5 - - - -
26/10:00pm 16.3 W 6 8 1017.3 - 0.0 - Partly cloudy 10 - - - -
26/09:30pm 16.8 SW 4 6 1017.1 - 0.0 - Partly cloudy 10 - - - -
26/09:00pm 17.5 S 6 8 1016.9 - 0.0 - Cloudy 10 - - - -
26/08:30pm 17.8 SSE 6 9 1016.6 - 0.0 - Partly cloudy 9 - - - -
26/08:00pm 17.4 SSE 7 10 1016.4 - 0.0 - Partly cloudy 10 - - - -
26/07:30pm 17.7 SE 7 9 1016.2 - 0.0 - Partly cloudy 10 - - - -
26/07:00pm 18.2 SE 9 12 1015.8 - 0.0 - Partly cloudy 10 - - - -
26/06:30pm 18.7 S 6 8 1015.5 - 0.0 - Partly cloudy 10 - - - -
26/06:00pm 18.8 SSE 8 11 1015.3 - 0.0 - Cloudy 8 - - - -
26/05:30pm 18.9 SSE 8 11 1015.3 - 0.0 - Partly cloudy 9 - - - -
26/05:00pm 18.9 SSE 7 10 1015.2 - 0.0 - Cloudy 9 - - - -
26/04:30pm 19.0 SE 8 10 1015.4 - 0.0 - Cloudy 10 - - - -
26/04:00pm 19.0 SSE 9 11 1015.4 - 0.0 - Cloudy 10 - - - -
26/03:30pm 19.1 SSE 8 12 1015.3 - 0.0 - Cloudy 10 - - - -
26/03:00pm 19.7 SSE 8 12 1015.3 - 0.0 - Mostly cloudy 10 - - - -
26/02:30pm 19.3 SSE 9 14 1015.4 - 0.0 - Partly cloudy 9 - - - -
26/02:00pm 19.9 SSE 9 13 1015.5 - 0.0 - Partly cloudy 10 - - - -
26/01:30pm 20.5 SSE 10 14 1015.5 - 0.0 - Partly cloudy 10 - - - -
26/01:00pm 19.8 SSE 10 15 1015.7 - 0.0 - Partly cloudy 10 - - - -
26/12:30pm 19.5 SE 10 13 1015.8 - 0.0 - Partly cloudy 10 - - - -
26/12:00pm 20.2 SSE 9 14 1015.7 - 0.0 - Mostly cloudy 10 - - - -
26/11:30am 19.3 S 8 12 1015.8 - 0.0 - Partly cloudy 10 - - - -

Other Formats:

Comma delimited format used in spreadsheet applications
http://www.bom.gov.au/fwo/IDN60701/IDN60701.95937.axf

JavaScript Object Notation format (JSON) in row-major order
http://www.bom.gov.au/fwo/IDN60701/IDN60701.95937.json